Terminal Aerodrome Forecast
Issued by NWS Cleveland, OH

Home | Current Version | Previous Version | Text Only | Print | Product List | Glossary Off
Versions: 1 2 3 4 5 6 7 8 9 10 11 12 13 14 15 16 17 18 19 20 21

000
FTUS41 KCLE 271100
TAFMFD
TAF
KMFD 271128Z 2712/2812 31004KT 6SM BR OVC020
      TEMPO 2712/2715 4SM -SN BKN009 OVC012
     FM271600 35005KT P6SM SCT012 OVC020
     FM280300 32003KT 6SM BR SKC=

USA.gov is the U.S. government's official web portal to all federal, state and local government web resources and services.